Time;durP1;ratioP1;P1;durP2;ratioP2;P2;SDS_P1;SDS_P2;PMS_P1;PMS_P2;Temp;Humidity;BMP_temperature;BMP_pressure;BME280_temperature;BME280_humidity;BME280_pressure;Samples;Min_cycle;Max_cycle;Signal;HPM_P1;HPM_P2
2023/03/21 00:00:41;;;;;;;;;;;;;;;12.84;99.56;100898.69;7360794;19;19987;-60
2023/03/21 00:03:08;;;;;;;;;;;;;;;12.84;99.54;100899.53;7356431;19;19911;-60
2023/03/21 00:05:38;;;;;;;;;;;;;;;12.89;99.50;100895.56;7360346;19;19990;-61
2023/03/21 00:08:06;;;;;;;;;;;;;;;12.91;99.90;100894.38;7358853;19;19993;-60
2023/03/21 00:10:34;;;;;;;;;;;;;;;12.92;99.29;100895.22;7358769;19;19982;-62
2023/03/21 00:13:11;;;;;;;;;;;;;;;12.90;98.89;100884.81;7359962;19;20004;-59
2023/03/21 00:15:49;;;;;;;;;;;;;;;12.90;98.54;100882.16;7359624;19;20247;-61
2023/03/21 00:18:36;;;;;;;;;;;;;;;12.90;98.42;100873.44;7358485;19;19943;-61
2023/03/21 00:21:03;;;;;;;;;;;;;;;12.90;97.93;100870.81;7359386;19;19922;-63
2023/03/21 00:23:50;;;;;;;;;;;;;;;12.88;97.88;100878.88;7356836;19;20351;-59
2023/03/21 00:26:17;;;;;;;;;;;;;;;12.86;97.46;100875.56;7358224;19;20384;-62
2023/03/21 00:28:44;;;;;;;;;;;;;;;12.83;97.28;100876.75;7359005;19;19923;-61
2023/03/21 00:31:12;;;;;;;;;;;;;;;12.83;96.88;100873.28;7361404;19;19935;-61
2023/03/21 00:33:39;;;;;;;;;;;;;;;12.81;96.92;100870.78;7356832;19;20375;-62
2023/03/21 00:39:26;;;;;;;;;;;;;;;12.86;97.46;100863.19;7358317;19;19932;-63
2023/03/21 00:41:53;;;;;;;;;;;;;;;12.88;97.36;100857.75;7357603;19;19927;-61
2023/03/21 00:44:22;;;;;;;;;;;;;;;12.89;97.56;100854.13;7359210;19;19919;-61
2023/03/21 00:46:49;;;;;;;;;;;;;;;12.90;97.51;100854.97;7359658;19;19923;-59
2023/03/21 00:49:33;;;;;;;;;;;;;;;12.89;97.21;100854.13;7359415;19;19930;-60
2023/03/21 00:52:01;;;;;;;;;;;;;;;12.90;97.01;100852.31;7358557;19;19994;-69
2023/03/21 00:54:44;;;;;;;;;;;;;;;12.90;97.07;100842.56;7357081;19;19953;-59
2023/03/21 00:57:11;;;;;;;;;;;;;;;12.90;97.25;100841.75;7359241;19;20344;-58
2023/03/21 00:59:38;;;;;;;;;;;;;;;12.89;97.29;100835.66;7359408;19;19918;-58
2023/03/21 01:02:06;;;;;;;;;;;;;;;12.86;97.16;100831.50;7356877;19;19919;-56
2023/03/21 01:04:33;;;;;;;;;;;;;;;12.83;96.81;100821.28;7358924;19;19923;-65
2023/03/21 01:07:03;;;;;;;;;;;;;;;12.84;96.83;100827.41;7357817;19;20176;-64
2023/03/21 01:09:31;;;;;;;;;;;;;;;12.85;96.63;100821.09;7357555;19;20018;-63
2023/03/21 01:11:58;;;;;;;;;;;;;;;12.86;96.63;100820.13;7358489;19;19986;-62
2023/03/21 01:14:25;;;;;;;;;;;;;;;12.89;97.05;100811.06;7359244;19;19915;-63
2023/03/21 01:16:52;;;;;;;;;;;;;;;12.88;96.69;100809.41;7358699;19;19923;-62
2023/03/21 01:19:21;;;;;;;;;;;;;;;12.92;96.93;100808.88;7355098;19;20010;-62
2023/03/21 01:21:59;;;;;;;;;;;;;;;12.91;96.49;100804.59;7355609;19;19919;-62
2023/03/21 01:24:26;;;;;;;;;;;;;;;12.92;96.77;100790.41;7353613;19;20645;-63
2023/03/21 01:26:53;;;;;;;;;;;;;;;12.90;96.08;100791.56;7353889;19;20170;-63
2023/03/21 01:29:20;;;;;;;;;;;;;;;12.88;95.75;100788.28;7359281;19;20371;-62
2023/03/21 01:31:47;;;;;;;;;;;;;;;12.88;96.23;100794.38;7366438;19;19926;-61
2023/03/21 01:34:14;;;;;;;;;;;;;;;12.89;96.08;100782.00;7365129;19;19926;-63
2023/03/21 01:36:41;;;;;;;;;;;;;;;12.87;95.34;100782.16;7363922;19;19946;-62
2023/03/21 01:39:08;;;;;;;;;;;;;;;12.87;95.28;100776.88;7363831;19;20903;-62
2023/03/21 01:41:36;;;;;;;;;;;;;;;12.86;95.22;100783.16;7361761;19;19919;-62
2023/03/21 01:44:13;;;;;;;;;;;;;;;12.86;95.12;100775.22;7362570;19;20005;-62
2023/03/21 01:46:43;;;;;;;;;;;;;;;12.86;95.11;100775.22;7363535;19;20320;-62
2023/03/21 01:49:33;;;;;;;;;;;;;;;12.84;95.12;100775.41;7361778;19;19932;-63
2023/03/21 01:52:04;;;;;;;;;;;;;;;12.83;95.23;100776.41;7362941;19;19919;-62
2023/03/21 01:54:42;;;;;;;;;;;;;;;12.86;95.66;100762.03;7359015;19;19922;-62
2023/03/21 01:57:12;;;;;;;;;;;;;;;12.84;95.20;100770.13;7363975;19;20604;-63
2023/03/21 01:59:41;;;;;;;;;;;;;;;12.85;95.08;100763.00;7364206;19;20263;-63
2023/03/21 02:02:11;;;;;;;;;;;;;;;12.87;95.25;100755.75;7362117;19;19926;-62
2023/03/21 02:04:38;;;;;;;;;;;;;;;12.87;94.72;100747.84;7364668;19;19945;-63
2023/03/21 02:07:08;;;;;;;;;;;;;;;12.83;94.51;100747.34;7366595;19;20608;-60
2023/03/21 02:09:36;;;;;;;;;;;;;;;12.82;94.60;100753.63;7361926;19;19914;-62
2023/03/21 02:12:03;;;;;;;;;;;;;;;12.83;94.67;100739.44;7361434;19;20251;-61
2023/03/21 02:14:32;;;;;;;;;;;;;;;12.81;93.82;100736.13;7362753;19;20425;-65
2023/03/21 02:16:59;;;;;;;;;;;;;;;12.80;93.90;100723.09;7365146;19;20221;-62
2023/03/21 02:19:28;;;;;;;;;;;;;;;12.82;93.87;100729.03;7363647;19;20507;-61
2023/03/21 02:22:10;;;;;;;;;;;;;;;12.80;94.26;100721.28;7361674;19;19930;-62
2023/03/21 02:24:38;;;;;;;;;;;;;;;12.83;94.65;100718.31;7359807;19;19930;-62
2023/03/21 02:27:11;;;;;;;;;;;;;;;12.82;94.36;100713.19;7363550;19;20939;-62
2023/03/21 02:29:41;;;;;;;;;;;;;;;12.76;93.58;100704.13;7360741;19;19925;-61
2023/03/21 02:32:12;;;;;;;;;;;;;;;12.71;93.71;100700.34;7365364;19;19919;-62
2023/03/21 02:34:53;;;;;;;;;;;;;;;12.71;94.15;100709.09;7365656;19;20343;-62
2023/03/21 02:37:25;;;;;;;;;;;;;;;12.69;94.04;100708.47;7360056;19;19926;-63
2023/03/21 02:40:09;;;;;;;;;;;;;;;12.74;94.71;100706.13;7355999;19;20486;-63
2023/03/21 02:42:38;;;;;;;;;;;;;;;12.76;94.46;100709.41;7360712;19;19915;-62
2023/03/21 02:45:05;;;;;;;;;;;;;;;12.73;93.90;100703.66;7362325;19;19919;-62
2023/03/21 02:47:33;;;;;;;;;;;;;;;12.73;93.63;100707.13;7362345;19;20524;-63
2023/03/21 02:50:01;;;;;;;;;;;;;;;12.69;93.29;100694.44;7362399;19;19931;-62
2023/03/21 02:52:30;;;;;;;;;;;;;;;12.68;92.96;100696.25;7361712;19;19994;-62
2023/03/21 02:55:12;;;;;;;;;;;;;;;12.67;93.10;100699.88;7357853;19;20313;-63
2023/03/21 02:57:42;;;;;;;;;;;;;;;12.67;92.99;100693.75;7355773;19;19923;-62
2023/03/21 03:00:11;;;;;;;;;;;;;;;12.62;92.56;100683.72;7361095;19;19918;-61
2023/03/21 03:02:43;;;;;;;;;;;;;;;12.61;93.07;100691.78;7359449;19;19959;-64
2023/03/21 03:05:12;;;;;;;;;;;;;;;12.59;93.22;100691.16;7360392;19;19922;-62
2023/03/21 03:07:47;;;;;;;;;;;;;;;12.59;93.65;100683.25;7362932;19;19941;-62
2023/03/21 03:10:23;;;;;;;;;;;;;;;12.58;93.11;100687.69;7361236;19;19998;-63
2023/03/21 03:12:51;;;;;;;;;;;;;;;12.57;93.42;100680.75;7364203;19;19923;-62
2023/03/21 03:15:22;;;;;;;;;;;;;;;12.56;93.25;100680.91;7361300;19;19925;-62
2023/03/21 03:17:52;;;;;;;;;;;;;;;12.54;93.53;100685.56;7361422;19;20304;-62
2023/03/21 03:20:20;;;;;;;;;;;;;;;12.52;93.38;100680.44;7362936;19;19923;-62
2023/03/21 03:22:50;;;;;;;;;;;;;;;12.51;93.60;100684.06;7361359;19;19926;-61
2023/03/21 03:25:22;;;;;;;;;;;;;;;12.53;94.11;100681.28;7358156;19;19915;-62
2023/03/21 03:28:06;;;;;;;;;;;;;;;12.54;94.08;100667.09;7362272;19;20382;-63
2023/03/21 03:30:35;;;;;;;;;;;;;;;12.52;94.42;100661.97;7359585;19;19930;-62
2023/03/21 03:33:15;;;;;;;;;;;;;;;12.53;94.50;100671.53;7361722;19;19926;-62
2023/03/21 03:35:44;;;;;;;;;;;;;;;12.52;94.45;100651.41;7361119;19;19922;-62
2023/03/21 03:38:20;;;;;;;;;;;;;;;12.47;93.98;100658.19;7359433;19;20445;-62
2023/03/21 03:40:50;;;;;;;;;;;;;;;12.42;94.17;100653.44;7360385;19;19936;-62
2023/03/21 03:43:20;;;;;;;;;;;;;;;12.40;94.23;100650.94;7361512;19;20013;-62
2023/03/21 03:45:48;;;;;;;;;;;;;;;12.42;94.93;100646.34;7359622;19;20897;-62
2023/03/21 03:48:17;;;;;;;;;;;;;;;12.39;94.30;100641.38;7357669;19;19922;-62
2023/03/21 03:50:48;;;;;;;;;;;;;;;12.38;93.94;100636.28;7361850;19;19930;-62
2023/03/21 03:53:19;;;;;;;;;;;;;;;12.35;93.98;100628.69;7360875;19;20628;-62
2023/03/21 03:55:46;;;;;;;;;;;;;;;12.35;94.13;100621.59;7357360;19;19923;-61
2023/03/21 03:58:17;;;;;;;;;;;;;;;12.39;94.96;100628.19;7360794;19;20209;-63
2023/03/21 04:00:51;;;;;;;;;;;;;;;12.41;94.68;100623.56;7358583;19;21600;-62
2023/03/21 04:03:18;;;;;;;;;;;;;;;12.43;94.17;100623.41;7359627;19;19926;-63
2023/03/21 04:05:45;;;;;;;;;;;;;;;12.41;93.13;100622.75;7359158;19;19930;-62
2023/03/21 04:08:13;;;;;;;;;;;;;;;12.41;92.91;100630.66;7358720;19;19931;-62
2023/03/21 04:10:40;;;;;;;;;;;;;;;12.42;93.31;100609.38;7357234;19;20266;-63
2023/03/21 04:13:07;;;;;;;;;;;;;;;12.39;91.58;100608.91;7359967;19;20296;-63
2023/03/21 04:15:34;;;;;;;;;;;;;;;12.38;90.68;100609.91;7358780;19;19930;-68
2023/03/21 04:18:01;;;;;;;;;;;;;;;12.37;90.46;100609.09;7360412;19;19922;-66
2023/03/21 04:20:28;;;;;;;;;;;;;;;12.35;90.36;100626.88;7359929;19;19970;-62
2023/03/21 04:23:02;;;;;;;;;;;;;;;12.32;89.96;100600.84;7355930;19;19962;-62
2023/03/21 04:25:32;;;;;;;;;;;;;;;12.30;90.34;100607.28;7354798;19;19926;-62
2023/03/21 04:28:00;;;;;;;;;;;;;;;12.28;90.24;100593.44;7358720;19;20252;-63
2023/03/21 04:30:27;;;;;;;;;;;;;;;12.26;90.10;100590.97;7358118;19;20786;-63
2023/03/21 04:32:55;;;;;;;;;;;;;;;12.26;89.57;100577.78;7359456;19;20041;-63
2023/03/21 04:35:23;;;;;;;;;;;;;;;12.22;89.50;100586.22;7356678;19;20394;-62
2023/03/21 04:37:50;;;;;;;;;;;;;;;12.24;90.53;100586.88;7360881;19;19923;-63
2023/03/21 04:40:17;;;;;;;;;;;;;;;12.26;89.99;100603.34;7358837;19;19915;-62
2023/03/21 04:42:45;;;;;;;;;;;;;;;12.27;89.98;100603.19;7360408;19;20624;-63
2023/03/21 04:45:14;;;;;;;;;;;;;;;12.27;89.89;100611.09;7357020;19;19934;-62
2023/03/21 04:47:41;;;;;;;;;;;;;;;12.26;89.85;100600.69;7360568;19;20141;-61
2023/03/21 04:50:09;;;;;;;;;;;;;;;12.28;90.43;100583.72;7359344;19;19998;-63
2023/03/21 04:52:36;;;;;;;;;;;;;;;12.27;90.57;100589.97;7356909;19;19915;-62
2023/03/21 04:55:03;;;;;;;;;;;;;;;12.31;91.04;100593.09;7352695;19;20062;-62
2023/03/21 04:57:30;;;;;;;;;;;;;;;12.30;91.38;100605.47;7355731;19;19929;-63
2023/03/21 04:59:57;;;;;;;;;;;;;;;12.28;91.59;100591.63;7358644;19;19929;-61
2023/03/21 05:02:24;;;;;;;;;;;;;;;12.30;92.38;100586.16;7354884;19;19930;-62
2023/03/21 05:04:51;;;;;;;;;;;;;;;12.28;92.57;100573.16;7359803;19;19923;-64
2023/03/21 05:07:18;;;;;;;;;;;;;;;12.23;92.38;100574.66;7363173;19;19919;-62
2023/03/21 05:09:45;;;;;;;;;;;;;;;12.18;91.56;100572.53;7359443;19;20033;-63
2023/03/21 05:12:12;;;;;;;;;;;;;;;12.17;92.49;100568.25;7361856;19;19923;-60
2023/03/21 05:14:39;;;;;;;;;;;;;;;12.17;93.40;100564.78;7362392;19;19953;-63
2023/03/21 05:17:06;;;;;;;;;;;;;;;12.17;94.00;100570.06;7361422;19;19972;-63
2023/03/21 05:19:34;;;;;;;;;;;;;;;12.15;94.35;100567.59;7361955;19;20297;-63
2023/03/21 05:22:03;;;;;;;;;;;;;;;12.11;93.51;100568.91;7364731;19;19922;-62
2023/03/21 05:24:31;;;;;;;;;;;;;;;12.10;93.86;100564.63;7361725;19;19915;-62
2023/03/21 05:29:29;;;;;;;;;;;;;;;11.98;93.47;100561.56;7362626;19;19926;-61
2023/03/21 05:31:57;;;;;;;;;;;;;;;11.97;94.06;100573.09;7360564;19;20319;-64
2023/03/21 05:34:24;;;;;;;;;;;;;;;11.97;94.38;100580.16;7360898;19;19937;-62
2023/03/21 05:36:51;;;;;;;;;;;;;;;11.98;94.92;100572.09;7361134;19;19930;-62
2023/03/21 05:39:18;;;;;;;;;;;;;;;11.98;94.64;100561.56;7357828;19;19923;-63
2023/03/21 05:41:45;;;;;;;;;;;;;;;11.98;94.25;100555.47;7362757;19;19923;-61
2023/03/21 05:44:12;;;;;;;;;;;;;;;11.98;94.51;100555.47;7360006;19;19919;-61
2023/03/21 05:46:39;;;;;;;;;;;;;;;11.98;95.00;100548.38;7359138;19;21651;-64
2023/03/21 05:49:06;;;;;;;;;;;;;;;11.97;94.61;100561.72;7360063;19;19942;-63
2023/03/21 05:51:33;;;;;;;;;;;;;;;11.96;94.77;100554.78;7362051;19;19943;-63
2023/03/21 05:54:00;;;;;;;;;;;;;;;11.94;94.53;100546.22;7169252;19;3717472;-63
2023/03/21 05:56:27;;;;;;;;;;;;;;;11.95;94.95;100551.31;7362204;19;19926;-64
2023/03/21 05:58:54;;;;;;;;;;;;;;;11.94;94.52;100556.75;7362140;19;19921;-61
2023/03/21 06:01:21;;;;;;;;;;;;;;;11.91;94.35;100550.03;7363609;19;20492;-63
2023/03/21 06:03:48;;;;;;;;;;;;;;;11.90;94.55;100550.19;7361882;19;20485;-62
2023/03/21 06:06:15;;;;;;;;;;;;;;;11.91;94.54;100557.09;7362013;19;19915;-63
2023/03/21 06:08:42;;;;;;;;;;;;;;;11.90;94.23;100561.56;7360197;19;20320;-63
2023/03/21 06:11:18;;;;;;;;;;;;;;;11.92;94.47;100561.41;7361985;19;20600;-62
2023/03/21 06:13:45;;;;;;;;;;;;;;;11.91;94.44;100562.38;7362431;19;19921;-61
2023/03/21 06:16:12;;;;;;;;;;;;;;;11.89;94.80;100552.00;7364196;19;19918;-63
2023/03/21 06:18:39;;;;;;;;;;;;;;;11.90;94.81;100550.19;7363753;19;19945;-62
2023/03/21 06:21:06;;;;;;;;;;;;;;;11.89;94.85;100543.25;7363513;19;19923;-62
2023/03/21 06:23:33;;;;;;;;;;;;;;;11.88;93.90;100553.00;7363710;19;19922;-63
2023/03/21 06:26:00;;;;;;;;;;;;;;;11.88;94.74;100545.09;7362022;19;20365;-65
2023/03/21 06:28:27;;;;;;;;;;;;;;;11.88;95.46;100553.00;7363000;19;19922;-63
2023/03/21 06:30:53;;;;;;;;;;;;;;;11.88;94.83;100546.91;7362172;19;19915;-64
2023/03/21 06:33:20;;;;;;;;;;;;;;;11.87;95.34;100547.91;7363039;19;19994;-61
2023/03/21 06:35:51;;;;;;;;;;;;;;;11.89;96.08;100545.91;7360876;19;19919;-63
2023/03/21 06:38:18;;;;;;;;;;;;;;;11.87;95.83;100547.91;7363834;19;19926;-63
2023/03/21 06:40:46;;;;;;;;;;;;;;;11.87;95.79;100554.00;7357989;19;19918;-62
2023/03/21 06:43:13;;;;;;;;;;;;;;;11.88;95.81;100550.38;7360777;19;19974;-63
2023/03/21 06:45:40;;;;;;;;;;;;;;;11.90;96.02;100547.53;7359969;19;20146;-64
2023/03/21 06:48:07;;;;;;;;;;;;;;;11.89;96.09;100546.72;7362211;19;19918;-63
2023/03/21 06:50:35;;;;;;;;;;;;;;;11.92;96.52;100553.47;7363073;19;19929;-63
2023/03/21 06:53:02;;;;;;;;;;;;;;;11.92;96.54;100537.66;7360186;19;19926;-62
2023/03/21 06:55:29;;;;;;;;;;;;;;;11.97;96.35;100540.63;7359627;19;20766;-62
2023/03/21 06:57:57;;;;;;;;;;;;;;;12.00;96.21;100529.72;7364145;19;20276;-62
2023/03/21 07:00:24;;;;;;;;;;;;;;;12.04;96.27;100528.38;7361162;19;19940;-64
2023/03/21 07:02:52;;;;;;;;;;;;;;;12.03;95.83;100537.31;7361579;19;19923;-63
2023/03/21 07:05:19;;;;;;;;;;;;;;;11.99;95.75;100531.53;7359445;19;19921;-62
2023/03/21 07:07:47;;;;;;;;;;;;;;;12.03;96.11;100534.69;7360434;19;19919;-61
2023/03/21 07:10:14;;;;;;;;;;;;;;;12.09;96.79;100533.19;7359926;19;19919;-63
2023/03/21 07:12:41;;;;;;;;;;;;;;;12.14;96.75;100528.22;7362770;19;20086;-63
2023/03/21 07:15:08;;;;;;;;;;;;;;;12.17;96.89;100525.22;7362172;19;19998;-63
2023/03/21 07:17:35;;;;;;;;;;;;;;;12.14;96.01;100518.47;7362524;19;20549;-62
2023/03/21 07:22:34;;;;;;;;;;;;;;;12.16;95.60;100520.94;7358356;19;20201;-64
2023/03/21 07:25:01;;;;;;;;;;;;;;;12.21;95.90;100518.59;7361232;19;19918;-64
2023/03/21 07:27:31;;;;;;;;;;;;;;;12.27;95.94;100521.41;7352888;19;19925;-63
2023/03/21 07:29:58;;;;;;;;;;;;;;;12.28;95.37;100528.31;7360536;19;19928;-61
2023/03/21 07:32:28;;;;;;;;;;;;;;;12.28;94.83;100530.97;7359202;19;19926;-63
2023/03/21 07:34:55;;;;;;;;;;;;;;;12.31;94.46;100524.50;7361515;19;19927;-63
2023/03/21 07:37:22;;;;;;;;;;;;;;;12.31;94.47;100524.50;7358562;19;19941;-62
2023/03/21 07:39:50;;;;;;;;;;;;;;;12.30;94.23;100528.94;7361146;19;20243;-62
2023/03/21 07:42:17;;;;;;;;;;;;;;;12.31;94.57;100525.31;7358291;19;20425;-61
2023/03/21 07:44:44;;;;;;;;;;;;;;;12.37;94.58;100529.09;7360307;19;19927;-62
2023/03/21 07:47:11;;;;;;;;;;;;;;;12.35;94.49;100529.25;7357503;19;19923;-62
2023/03/21 07:49:38;;;;;;;;;;;;;;;12.40;94.70;100528.75;7358698;19;20183;-64
2023/03/21 07:52:06;;;;;;;;;;;;;;;12.44;95.45;100533.50;7360750;19;20480;-62
2023/03/21 07:54:33;;;;;;;;;;;;;;;12.43;94.88;100526.59;7357363;19;19961;-63
2023/03/21 07:57:00;;;;;;;;;;;;;;;12.40;94.69;100532.22;7359353;19;19919;-63
2023/03/21 07:59:27;;;;;;;;;;;;;;;12.42;94.91;100539.97;7359822;19;20947;-62
2023/03/21 08:01:55;;;;;;;;;;;;;;;12.47;95.59;100534.16;7359951;19;19926;-62
2023/03/21 08:04:22;;;;;;;;;;;;;;;12.53;96.62;100544.03;7354904;19;19914;-63
2023/03/21 08:06:49;;;;;;;;;;;;;;;12.56;96.75;100538.41;7360298;19;19943;-63
2023/03/21 08:09:16;;;;;;;;;;;;;;;12.56;96.41;100541.03;7359661;19;19923;-61
2023/03/21 08:11:43;;;;;;;;;;;;;;;12.56;96.36;100535.75;7361087;19;19922;-63
2023/03/21 08:14:11;;;;;;;;;;;;;;;12.57;95.74;100534.78;7359987;19;19926;-62
2023/03/21 08:16:38;;;;;;;;;;;;;;;12.57;95.64;100524.22;7355422;19;19978;-63
2023/03/21 08:19:05;;;;;;;;;;;;;;;12.58;96.13;100521.41;7356229;19;19914;-63
2023/03/21 08:21:32;;;;;;;;;;;;;;;12.61;95.96;100520.22;7360092;19;20316;-63
2023/03/21 08:23:59;;;;;;;;;;;;;;;12.61;95.56;100517.59;7356707;19;20337;-63
2023/03/21 08:26:31;;;;;;;;;;;;;;;12.65;95.46;100524.97;7354967;19;20195;-63
2023/03/21 08:29:06;;;;;;;;;;;;;;;12.75;96.19;100525.59;7355157;19;19919;-63
2023/03/21 08:31:33;;;;;;;;;;;;;;;12.83;95.80;100537.94;7356471;19;19923;-63
2023/03/21 08:34:01;;;;;;;;;;;;;;;12.86;95.81;100537.56;7356765;19;19937;-63
2023/03/21 08:36:30;;;;;;;;;;;;;;;12.92;95.86;100554.53;7358809;19;20019;-63
2023/03/21 08:39:04;;;;;;;;;;;;;;;12.93;94.58;100540.34;7354329;19;19922;-66
2023/03/21 08:41:32;;;;;;;;;;;;;;;12.90;93.85;100541.50;7357786;19;19926;-64
2023/03/21 08:43:59;;;;;;;;;;;;;;;12.84;93.49;100531.66;7357643;19;19923;-63
2023/03/21 08:46:28;;;;;;;;;;;;;;;12.85;93.99;100541.19;7356664;19;19914;-62
2023/03/21 08:48:56;;;;;;;;;;;;;;;12.89;94.64;100539.88;7354903;19;19960;-64
2023/03/21 08:51:23;;;;;;;;;;;;;;;12.96;94.52;100530.25;7356665;19;20549;-62
2023/03/21 08:53:50;;;;;;;;;;;;;;;13.07;94.59;100531.66;7355593;19;19962;-62
2023/03/21 08:56:17;;;;;;;;;;;;;;;13.16;93.81;100525.34;7353387;19;19922;-62
2023/03/21 08:58:46;;;;;;;;;;;;;;;13.28;92.97;100510.72;7358372;19;19922;-62
2023/03/21 09:01:14;;;;;;;;;;;;;;;13.47;92.83;100510.22;7357337;19;20252;-63
2023/03/21 09:03:42;;;;;;;;;;;;;;;13.70;92.50;100511.00;7355843;19;19922;-63
2023/03/21 09:06:11;;;;;;;;;;;;;;;13.90;91.10;100502.53;7355508;19;19923;-63
2023/03/21 09:08:38;;;;;;;;;;;;;;;14.09;90.11;100509.91;7357171;19;19915;-63
2023/03/21 09:11:05;;;;;;;;;;;;;;;14.28;89.49;100500.56;7354014;19;20751;-66
2023/03/21 09:13:32;;;;;;;;;;;;;;;14.42;87.93;100502.41;7357995;19;20396;-64
2023/03/21 09:16:00;;;;;;;;;;;;;;;14.52;87.88;100508.25;7357308;19;19955;-65
2023/03/21 09:20:59;;;;;;;;;;;;;;;14.62;85.93;100505.28;7356256;19;19914;-62
2023/03/21 09:23:36;;;;;;;;;;;;;;;14.66;85.65;100503.91;7340614;19;19915;-63
2023/03/21 09:26:06;;;;;;;;;;;;;;;14.69;85.61;100500.88;7350542;19;20021;-62
2023/03/21 09:28:36;;;;;;;;;;;;;;;14.76;85.49;100501.78;7352789;19;19971;-62
2023/03/21 09:31:11;;;;;;;;;;;;;;;14.77;84.72;100493.63;7353789;19;19922;-64
2023/03/21 09:33:43;;;;;;;;;;;;;;;14.81;85.14;100492.25;7357960;19;19926;-62
2023/03/21 09:36:15;;;;;;;;;;;;;;;14.66;83.38;100495.97;7354474;19;19918;-63
2023/03/21 09:38:46;;;;;;;;;;;;;;;14.60;84.10;100494.88;7351060;19;19915;-61
2023/03/21 09:41:24;;;;;;;;;;;;;;;14.54;85.03;100493.78;7352886;19;19923;-61
2023/03/21 09:43:57;;;;;;;;;;;;;;;14.47;85.45;100500.03;7352063;19;20348;-62
2023/03/21 09:46:27;;;;;;;;;;;;;;;14.41;85.23;100503.41;7353252;19;20426;-63
2023/03/21 09:48:56;;;;;;;;;;;;;;;14.38;85.46;100495.81;7353192;19;19922;-63
2023/03/21 09:51:27;;;;;;;;;;;;;;;14.37;86.73;100494.22;7357463;19;19923;-63
2023/03/21 09:53:54;;;;;;;;;;;;;;;14.40;86.21;100496.47;7358746;19;19927;-63
2023/03/21 09:56:24;;;;;;;;;;;;;;;14.37;85.71;100483.63;7359976;19;19958;-62
2023/03/21 09:58:55;;;;;;;;;;;;;;;14.37;85.80;100495.03;7359368;19;19927;-63
2023/03/21 10:03:59;;;;;;;;;;;;;;;14.43;86.44;100507.50;7358556;19;21538;-63
2023/03/21 10:11:36;;;;;;;;;;;;;;;14.31;87.24;100506.31;7360507;19;19918;-62
2023/03/21 10:14:07;;;;;;;;;;;;;;;14.30;88.66;100503.84;7360904;19;19915;-62
2023/03/21 10:16:36;;;;;;;;;;;;;;;14.25;88.55;100516.81;7359373;19;19919;-62
2023/03/21 10:19:12;;;;;;;;;;;;;;;14.14;89.10;100516.28;7357714;19;19922;-62
2023/03/21 10:21:45;;;;;;;;;;;;;;;14.07;89.99;100510.06;7355583;19;19919;-61
2023/03/21 10:24:32;;;;;;;;;;;;;;;14.04;90.55;100499.03;7351973;19;20354;-63
2023/03/21 10:27:06;;;;;;;;;;;;;;;13.98;91.24;100500.59;7355659;19;20418;-62
2023/03/21 10:29:42;;;;;;;;;;;;;;;13.91;92.15;100501.53;7358407;19;20279;-63
2023/03/21 10:32:17;;;;;;;;;;;;;;;13.91;92.86;100498.88;7356633;19;19922;-63
2023/03/21 10:34:50;;;;;;;;;;;;;;;13.92;93.53;100496.03;7357723;19;19918;-63
2023/03/21 10:37:24;;;;;;;;;;;;;;;13.96;93.90;100496.50;7360903;19;20556;-63
2023/03/21 10:39:54;;;;;;;;;;;;;;;13.96;93.34;100488.56;7358463;19;19929;-63
2023/03/21 10:42:24;;;;;;;;;;;;;;;14.07;93.91;100485.44;7356805;19;19959;-62
2023/03/21 10:44:57;;;;;;;;;;;;;;;14.14;93.60;100479.25;7358182;19;20202;-62
2023/03/21 10:47:30;;;;;;;;;;;;;;;14.20;93.33;100480.31;7357302;19;19922;-62
2023/03/21 10:50:02;;;;;;;;;;;;;;;14.26;93.10;100470.84;7356502;19;19926;-64
2023/03/21 10:52:37;;;;;;;;;;;;;;;14.26;91.61;100469.00;7357393;19;19919;-62
2023/03/21 10:55:08;;;;;;;;;;;;;;;14.27;91.30;100464.53;7354898;19;19926;-63
2023/03/21 10:57:38;;;;;;;;;;;;;;;14.31;90.66;100460.50;7357957;19;19926;-64
2023/03/21 11:00:17;;;;;;;;;;;;;;;14.39;89.53;100457.78;7356070;19;19927;-62
2023/03/21 11:02:49;;;;;;;;;;;;;;;14.55;89.70;100458.38;7356106;19;20431;-62
2023/03/21 11:05:21;;;;;;;;;;;;;;;14.73;89.08;100451.84;7359013;19;19942;-62
2023/03/21 11:07:54;;;;;;;;;;;;;;;14.83;86.95;100447.84;7358283;19;19929;-62
2023/03/21 11:10:28;;;;;;;;;;;;;;;15.01;86.86;100446.56;7356845;19;19923;-63
2023/03/21 11:13:04;;;;;;;;;;;;;;;15.15;84.98;100435.88;7358066;19;19927;-63
2023/03/21 11:15:37;;;;;;;;;;;;;;;15.24;84.00;100432.06;7356692;19;19919;-62
2023/03/21 11:18:11;;;;;;;;;;;;;;;15.30;82.95;100428.66;7356794;19;19919;-63
2023/03/21 11:20:44;;;;;;;;;;;;;;;15.40;82.19;100428.31;7355667;19;19922;-62
2023/03/21 11:23:14;;;;;;;;;;;;;;;15.40;81.34;100433.63;7355191;19;19919;-62
2023/03/21 11:25:50;;;;;;;;;;;;;;;15.36;80.51;100427.88;7351582;19;19962;-62
2023/03/21 11:28:23;;;;;;;;;;;;;;;15.30;80.04;100426.00;7357556;19;19919;-62
2023/03/21 11:30:53;;;;;;;;;;;;;;;15.27;79.54;100421.09;7356425;19;20321;-63
2023/03/21 11:33:25;;;;;;;;;;;;;;;15.29;79.94;100418.22;7358360;19;20380;-63
2023/03/21 11:35:56;;;;;;;;;;;;;;;15.34;79.50;100421.94;7358522;19;19927;-62
2023/03/21 11:38:26;;;;;;;;;;;;;;;15.39;79.58;100419.53;7360228;19;20224;-63
2023/03/21 11:40:55;;;;;;;;;;;;;;;15.36;78.41;100409.31;7356829;19;19926;-63
2023/03/21 11:43:25;;;;;;;;;;;;;;;15.36;78.02;100408.50;7360903;19;19915;-62
2023/03/21 11:45:56;;;;;;;;;;;;;;;15.41;79.27;100416.69;7362245;19;19915;-63
2023/03/21 11:48:23;;;;;;;;;;;;;;;15.41;78.63;100425.47;7359141;19;20006;-64
2023/03/21 11:50:55;;;;;;;;;;;;;;;15.47;79.20;100412.44;7360756;19;19933;-63
2023/03/21 11:53:30;;;;;;;;;;;;;;;15.48;79.09;100414.91;7357195;19;19933;-63
2023/03/21 11:56:00;;;;;;;;;;;;;;;15.54;80.02;100424.78;7358838;19;19922;-68
2023/03/21 11:58:30;;;;;;;;;;;;;;;15.62;79.84;100429.09;7360202;19;19929;-63
2023/03/21 12:01:01;;;;;;;;;;;;;;;15.63;78.48;100436.88;7359357;19;19933;-63
2023/03/21 12:03:44;;;;;;;;;;;;;;;15.59;78.04;100435.63;7359801;19;19946;-62
2023/03/21 12:06:17;;;;;;;;;;;;;;;15.55;79.36;100436.19;7360310;19;19925;-63
2023/03/21 12:08:50;;;;;;;;;;;;;;;15.52;79.99;100429.44;7356032;19;19926;-63
2023/03/21 12:11:21;;;;;;;;;;;;;;;15.48;80.11;100425.53;7359578;19;21503;-62
2023/03/21 12:13:49;;;;;;;;;;;;;;;15.47;80.22;100428.38;7357532;19;20673;-62
2023/03/21 12:16:19;;;;;;;;;;;;;;;15.50;80.79;100426.13;7361162;19;20010;-63
2023/03/21 12:18:47;;;;;;;;;;;;;;;15.51;80.52;100421.66;7356768;19;19942;-62
2023/03/21 12:21:17;;;;;;;;;;;;;;;15.45;78.13;100420.59;7354551;19;19927;-62
2023/03/21 12:23:47;;;;;;;;;;;;;;;15.48;79.73;100417.56;7355845;19;21552;-63
2023/03/21 12:26:18;;;;;;;;;;;;;;;15.52;79.72;100431.28;7360220;19;19970;-63
2023/03/21 12:28:50;;;;;;;;;;;;;;;15.53;79.45;100427.63;7355172;19;19944;-63
2023/03/21 12:31:20;;;;;;;;;;;;;;;15.47;79.69;100426.53;7361261;19;19945;-63
2023/03/21 12:33:49;;;;;;;;;;;;;;;15.42;79.85;100413.03;7359472;19;19915;-61
2023/03/21 12:36:20;;;;;;;;;;;;;;;15.42;80.46;100405.09;7356835;19;20271;-63
2023/03/21 12:38:59;;;;;;;;;;;;;;;15.41;80.43;100401.59;7357716;19;20340;-62
2023/03/21 12:41:29;;;;;;;;;;;;;;;15.41;80.00;100393.66;7358874;19;20479;-63
2023/03/21 12:43:59;;;;;;;;;;;;;;;15.41;79.22;100391.00;7358095;19;19919;-64
2023/03/21 12:46:32;;;;;;;;;;;;;;;15.49;79.56;100402.47;7360001;19;19926;-62
2023/03/21 12:49:01;;;;;;;;;;;;;;;15.55;78.61;100402.53;7356589;19;19921;-63
2023/03/21 12:51:31;;;;;;;;;;;;;;;15.61;78.03;100403.59;7360351;19;19922;-63
2023/03/21 12:54:03;;;;;;;;;;;;;;;15.67;77.83;100400.97;7355743;19;19992;-63
2023/03/21 12:56:32;;;;;;;;;;;;;;;15.74;77.07;100396.53;7358445;19;20125;-63
2023/03/21 12:59:00;;;;;;;;;;;;;;;15.80;76.08;100401.03;7356401;19;19927;-63
2023/03/21 13:01:27;;;;;;;;;;;;;;;15.90;76.52;100398.00;7357752;19;19923;-61
2023/03/21 13:03:57;;;;;;;;;;;;;;;15.95;75.51;100395.56;7356993;19;19931;-63
2023/03/21 13:06:27;;;;;;;;;;;;;;;16.01;75.58;100400.09;7358298;19;19926;-63